Time;durP1;ratioP1;P1;durP2;ratioP2;P2;SDS_P1;SDS_P2;PMS_P1;PMS_P2;Temp;Humidity;BMP_temperature;BMP_pressure;BME280_temperature;BME280_humidity;BME280_pressure;Samples;Min_cycle;Max_cycle;Signal;HPM_P1;HPM_P2
2022/03/03 00:02:10;;;;;;;;;;;;;;;5.37;44.66;100919.16;4983046;28;7206;-71
2022/03/03 00:04:36;;;;;;;;;;;;;;;5.34;44.29;100914.72;4970116;28;7197;-71
2022/03/03 00:07:01;;;;;;;;;;;;;;;5.32;44.61;100911.16;4987695;28;6820;-71
2022/03/03 00:09:27;;;;;;;;;;;;;;;5.30;44.46;100917.75;4994291;28;6784;-71
2022/03/03 00:11:53;;;;;;;;;;;;;;;5.27;45.05;100912.47;4976356;28;6997;-71
2022/03/03 00:14:19;;;;;;;;;;;;;;;5.23;44.50;100907.91;4942107;28;6980;-71
2022/03/03 00:16:48;;;;;;;;;;;;;;;5.20;45.11;100912.75;4989792;28;6971;-71
2022/03/03 00:19:13;;;;;;;;;;;;;;;5.14;44.93;100911.50;4983519;28;7421;-71
2022/03/03 00:21:39;;;;;;;;;;;;;;;5.11;45.57;100908.72;4975620;28;7877;-71
2022/03/03 00:24:05;;;;;;;;;;;;;;;5.07;45.49;100903.25;4994209;28;6897;-71
2022/03/03 00:26:31;;;;;;;;;;;;;;;5.05;45.04;100905.72;5003707;28;7002;-71
2022/03/03 00:28:56;;;;;;;;;;;;;;;5.00;45.55;100907.88;4970011;28;7442;-71
2022/03/03 00:31:23;;;;;;;;;;;;;;;4.97;45.66;100906.75;4998340;28;6879;-71
2022/03/03 00:33:49;;;;;;;;;;;;;;;4.95;45.58;100904.09;4956858;28;7294;-71
2022/03/03 00:36:15;;;;;;;;;;;;;;;4.94;45.72;100903.97;4999885;28;7036;-71
2022/03/03 00:38:41;;;;;;;;;;;;;;;4.90;45.67;100910.47;4979705;28;7216;-71
2022/03/03 00:41:06;;;;;;;;;;;;;;;4.86;45.31;100894.09;4979461;28;6869;-71
2022/03/03 00:43:32;;;;;;;;;;;;;;;4.83;45.40;100903.13;4984310;28;6806;-71
2022/03/03 00:45:58;;;;;;;;;;;;;;;4.79;45.92;100907.06;5001817;28;6811;-71
2022/03/03 00:48:23;;;;;;;;;;;;;;;4.75;45.68;100910.16;5002281;28;6900;-71
2022/03/03 00:50:49;;;;;;;;;;;;;;;4.71;46.03;100906.47;4996781;28;6976;-71
2022/03/03 00:53:15;;;;;;;;;;;;;;;4.70;45.58;100911.41;4979735;28;7157;-71
2022/03/03 00:55:40;;;;;;;;;;;;;;;4.68;45.44;100903.69;4994460;28;7280;-71
2022/03/03 00:58:06;;;;;;;;;;;;;;;4.70;46.03;100903.78;4999972;28;6788;-71
2022/03/03 01:00:32;;;;;;;;;;;;;;;4.71;45.65;100903.03;4997410;28;6855;-72
2022/03/03 01:02:58;;;;;;;;;;;;;;;4.75;46.20;100902.53;4998400;28;6928;-71
2022/03/03 01:05:23;;;;;;;;;;;;;;;4.78;45.98;100902.75;4998837;28;6879;-71
2022/03/03 01:07:49;;;;;;;;;;;;;;;4.83;46.02;100900.59;5004504;28;6772;-71
2022/03/03 01:10:15;;;;;;;;;;;;;;;4.86;46.30;100899.19;4998215;28;7872;-71
2022/03/03 01:12:41;;;;;;;;;;;;;;;4.93;46.39;100895.47;4998560;28;6809;-71
2022/03/03 01:15:10;;;;;;;;;;;;;;;5.01;46.54;100888.44;4997817;28;7044;-71
2022/03/03 01:17:36;;;;;;;;;;;;;;;5.07;46.16;100888.03;4983775;28;6815;-71
2022/03/03 01:20:05;;;;;;;;;;;;;;;5.10;45.31;100889.16;4980868;28;6970;-71
2022/03/03 01:22:30;;;;;;;;;;;;;;;5.12;45.75;100887.63;4998858;28;7027;-71
2022/03/03 01:24:56;;;;;;;;;;;;;;;5.12;46.04;100892.72;4999498;28;6808;-71
2022/03/03 01:27:22;;;;;;;;;;;;;;;5.12;45.33;100894.38;5000953;28;7121;-71
2022/03/03 01:29:47;;;;;;;;;;;;;;;5.11;45.50;100900.22;4968962;28;6871;-71
2022/03/03 01:32:13;;;;;;;;;;;;;;;5.08;45.41;100893.22;4981922;28;7465;-71
2022/03/03 01:34:39;;;;;;;;;;;;;;;5.03;45.27;100894.53;5002351;28;6779;-71
2022/03/03 01:37:05;;;;;;;;;;;;;;;4.99;45.36;100893.41;4976708;28;6788;-72
2022/03/03 01:39:31;;;;;;;;;;;;;;;4.93;45.94;100879.34;4993723;28;6825;-71
2022/03/03 01:41:58;;;;;;;;;;;;;;;4.87;45.96;100879.72;4997191;28;6808;-72
2022/03/03 01:44:24;;;;;;;;;;;;;;;4.79;46.32;100879.13;4999204;28;6812;-71
2022/03/03 01:46:54;;;;;;;;;;;;;;;4.72;46.35;100884.47;4995554;28;6799;-71
2022/03/03 01:49:20;;;;;;;;;;;;;;;4.65;46.75;100878.03;4968786;28;7117;-71
2022/03/03 01:51:46;;;;;;;;;;;;;;;4.58;45.72;100874.13;4995645;28;6796;-71
2022/03/03 01:54:12;;;;;;;;;;;;;;;4.51;46.29;100871.00;5000906;28;7224;-72
2022/03/03 01:56:41;;;;;;;;;;;;;;;4.46;46.77;100870.63;4968191;28;6808;-71
2022/03/03 01:59:08;;;;;;;;;;;;;;;4.40;47.21;100863.41;4989141;28;6895;-71
2022/03/03 02:01:36;;;;;;;;;;;;;;;4.34;47.33;100862.91;4985936;28;6812;-71
2022/03/03 02:04:08;;;;;;;;;;;;;;;4.28;46.61;100865.84;4996127;28;6890;-71
2022/03/03 02:06:35;;;;;;;;;;;;;;;4.21;47.18;100863.56;4994843;28;7776;-71
2022/03/03 02:09:02;;;;;;;;;;;;;;;4.16;46.35;100867.38;4981465;28;6808;-72
2022/03/03 02:11:31;;;;;;;;;;;;;;;4.12;47.10;100867.88;4995536;28;6815;-71
2022/03/03 02:13:58;;;;;;;;;;;;;;;4.06;46.56;100859.78;4996555;28;6812;-71
2022/03/03 02:16:24;;;;;;;;;;;;;;;4.01;47.23;100851.81;4997604;28;6808;-71
2022/03/03 02:18:50;;;;;;;;;;;;;;;3.99;47.55;100848.22;4958675;28;6965;-71
2022/03/03 02:21:16;;;;;;;;;;;;;;;3.97;47.19;100844.69;5002859;28;8200;-71
2022/03/03 02:23:43;;;;;;;;;;;;;;;3.95;47.94;100836.94;4967660;28;6780;-71
2022/03/03 02:26:17;;;;;;;;;;;;;;;3.91;47.36;100837.47;5001369;28;7430;-71
2022/03/03 02:28:43;;;;;;;;;;;;;;;3.89;46.93;100836.47;4985551;28;6896;-71
2022/03/03 02:31:09;;;;;;;;;;;;;;;3.86;47.68;100836.19;4994333;28;6792;-71
2022/03/03 02:33:35;;;;;;;;;;;;;;;3.83;47.71;100836.84;4997003;28;8626;-71
2022/03/03 02:36:33;;;;;;;;;;;;;;;3.82;47.85;100841.78;4976277;28;6970;-71
2022/03/03 02:39:02;;;;;;;;;;;;;;;3.81;47.99;100840.03;4959750;28;7023;-72
2022/03/03 02:41:29;;;;;;;;;;;;;;;3.81;48.35;100833.28;4992885;28;8003;-71
2022/03/03 02:43:57;;;;;;;;;;;;;;;3.83;48.35;100836.84;4966909;28;6812;-71
2022/03/03 02:46:23;;;;;;;;;;;;;;;3.86;46.97;100838.72;4998462;28;6877;-71
2022/03/03 02:48:49;;;;;;;;;;;;;;;3.87;47.42;100835.47;4979083;28;6892;-71
2022/03/03 02:51:15;;;;;;;;;;;;;;;3.89;47.96;100826.31;4959030;28;6784;-71
2022/03/03 02:53:40;;;;;;;;;;;;;;;3.96;47.61;100830.25;4997546;28;6779;-71
2022/03/03 02:56:07;;;;;;;;;;;;;;;4.03;47.87;100822.38;4960719;28;6963;-71
2022/03/03 02:58:32;;;;;;;;;;;;;;;4.09;47.04;100821.97;4987490;28;7303;-71
2022/03/03 03:01:02;;;;;;;;;;;;;;;4.13;47.77;100819.81;4982982;28;6910;-71
2022/03/03 03:03:28;;;;;;;;;;;;;;;4.19;47.29;100816.88;4984012;28;6974;-71
2022/03/03 03:05:53;;;;;;;;;;;;;;;4.23;46.64;100813.81;4983783;28;8109;-71
2022/03/03 03:08:19;;;;;;;;;;;;;;;4.26;46.33;100818.25;4980939;28;7573;-71
2022/03/03 03:10:45;;;;;;;;;;;;;;;4.26;46.35;100811.53;4982783;28;7824;-71
2022/03/03 03:13:14;;;;;;;;;;;;;;;4.26;47.70;100806.47;4992981;28;7272;-71
2022/03/03 03:15:43;;;;;;;;;;;;;;;4.24;46.86;100810.50;4983706;28;6979;-71
2022/03/03 03:18:21;;;;;;;;;;;;;;;4.24;46.48;100807.09;5009377;28;6828;-71
2022/03/03 03:20:51;;;;;;;;;;;;;;;4.23;47.28;100812.94;4984811;28;6795;-71
2022/03/03 03:23:20;;;;;;;;;;;;;;;4.20;46.30;100800.88;4963437;28;7106;-71
2022/03/03 03:25:47;;;;;;;;;;;;;;;4.20;46.86;100798.34;5000937;28;6917;-71
2022/03/03 03:28:18;;;;;;;;;;;;;;;4.19;46.95;100793.16;4995408;28;6807;-71
2022/03/03 03:30:45;;;;;;;;;;;;;;;4.16;47.21;100799.75;5000939;28;7374;-71
2022/03/03 03:33:11;;;;;;;;;;;;;;;4.13;47.16;100791.91;4986379;28;6866;-71
2022/03/03 03:35:37;;;;;;;;;;;;;;;4.10;47.54;100790.78;4981633;28;7082;-71
2022/03/03 03:38:04;;;;;;;;;;;;;;;4.05;46.84;100789.50;4973964;28;6883;-71
2022/03/03 03:40:31;;;;;;;;;;;;;;;3.98;46.85;100791.56;4988507;28;6800;-72
2022/03/03 03:42:56;;;;;;;;;;;;;;;3.90;47.68;100792.59;4974059;28;6966;-72
2022/03/03 03:45:22;;;;;;;;;;;;;;;3.85;47.16;100793.84;4970318;28;7321;-72
2022/03/03 03:47:48;;;;;;;;;;;;;;;3.79;47.88;100793.38;4975274;28;6867;-72
2022/03/03 03:50:14;;;;;;;;;;;;;;;3.73;47.22;100789.56;4990663;28;7218;-72
2022/03/03 03:52:41;;;;;;;;;;;;;;;3.67;47.61;100791.59;4973842;28;6919;-72
2022/03/03 03:55:10;;;;;;;;;;;;;;;3.64;48.07;100793.00;4996678;28;6792;-72
2022/03/03 03:57:36;;;;;;;;;;;;;;;3.57;47.53;100789.94;4988088;28;7032;-72
2022/03/03 04:00:07;;;;;;;;;;;;;;;3.51;47.81;100789.44;4957993;28;7252;-71
2022/03/03 04:02:33;;;;;;;;;;;;;;;3.46;47.17;100786.53;5000373;28;7496;-71
2022/03/03 04:04:59;;;;;;;;;;;;;;;3.43;47.79;100791.34;4972875;28;6784;-71
2022/03/03 04:07:24;;;;;;;;;;;;;;;3.38;47.12;100786.66;4980981;28;6967;-71
2022/03/03 04:09:50;;;;;;;;;;;;;;;3.34;47.26;100790.59;4974653;28;7140;-70
2022/03/03 04:12:16;;;;;;;;;;;;;;;3.29;47.58;100789.31;4977351;28;6824;-70
2022/03/03 04:14:41;;;;;;;;;;;;;;;3.26;47.45;100786.50;4994100;28;7822;-70
2022/03/03 04:17:07;;;;;;;;;;;;;;;3.22;48.21;100789.56;4992217;28;6780;-71
2022/03/03 04:19:33;;;;;;;;;;;;;;;3.16;47.41;100785.75;4968987;28;7188;-71
2022/03/03 04:21:58;;;;;;;;;;;;;;;3.14;48.56;100781.31;4968911;28;8060;-71
2022/03/03 04:24:24;;;;;;;;;;;;;;;3.09;47.61;100780.03;4997861;28;6980;-71
2022/03/03 04:26:50;;;;;;;;;;;;;;;3.04;48.09;100770.44;4989522;28;7808;-71
2022/03/03 04:29:15;;;;;;;;;;;;;;;3.02;48.87;100768.50;4995180;28;6788;-71
2022/03/03 04:31:41;;;;;;;;;;;;;;;3.01;47.93;100769.28;5000485;28;6872;-71
2022/03/03 04:34:07;;;;;;;;;;;;;;;2.99;48.79;100763.16;4994061;28;6784;-71
2022/03/03 04:36:32;;;;;;;;;;;;;;;2.98;48.22;100764.84;4963044;28;8656;-71
2022/03/03 04:38:58;;;;;;;;;;;;;;;2.99;49.06;100761.53;4995937;28;7297;-71
2022/03/03 04:41:24;;;;;;;;;;;;;;;3.00;49.14;100762.44;4971952;28;6796;-71
2022/03/03 04:43:50;;;;;;;;;;;;;;;3.02;49.07;100766.84;4997751;28;6796;-71
2022/03/03 04:46:16;;;;;;;;;;;;;;;3.04;48.32;100767.91;4993148;28;6982;-71
2022/03/03 04:48:41;;;;;;;;;;;;;;;3.07;48.92;100771.44;4969839;28;6937;-71
2022/03/03 04:51:08;;;;;;;;;;;;;;;3.09;49.29;100770.81;4968205;28;6792;-71
2022/03/03 04:53:33;;;;;;;;;;;;;;;3.10;48.79;100762.44;4999628;28;7223;-71
2022/03/03 04:55:59;;;;;;;;;;;;;;;3.13;48.99;100756.72;4984475;28;7265;-71
2022/03/03 04:58:25;;;;;;;;;;;;;;;3.15;49.23;100762.84;4959633;28;6883;-71
2022/03/03 05:00:52;;;;;;;;;;;;;;;3.17;49.05;100759.66;4980983;28;6933;-71
2022/03/03 05:03:18;;;;;;;;;;;;;;;3.21;48.86;100762.47;4989192;28;6811;-71
2022/03/03 05:05:43;;;;;;;;;;;;;;;3.26;49.09;100756.09;5000853;28;6764;-70
2022/03/03 05:08:09;;;;;;;;;;;;;;;3.31;48.79;100754.84;4999156;28;6815;-70
2022/03/03 05:10:35;;;;;;;;;;;;;;;3.35;48.84;100745.88;5002281;28;7288;-70
2022/03/03 05:13:01;;;;;;;;;;;;;;;3.39;48.39;100761.47;5000616;28;7169;-71
2022/03/03 05:15:28;;;;;;;;;;;;;;;3.41;48.76;100746.34;4979050;28;7193;-71
2022/03/03 05:17:54;;;;;;;;;;;;;;;3.43;48.06;100745.72;4991395;28;6955;-71
2022/03/03 05:20:19;;;;;;;;;;;;;;;3.46;48.96;100745.09;4994350;28;6836;-70
2022/03/03 05:22:45;;;;;;;;;;;;;;;3.46;48.95;100745.09;4964535;28;6788;-70
2022/03/03 05:25:11;;;;;;;;;;;;;;;3.47;48.83;100742.66;5001214;28;7110;-70
2022/03/03 05:27:39;;;;;;;;;;;;;;;3.46;48.97;100738.38;4999570;28;6780;-70
2022/03/03 05:30:07;;;;;;;;;;;;;;;3.44;48.32;100741.56;5002643;28;6816;-70
2022/03/03 05:32:33;;;;;;;;;;;;;;;3.42;48.07;100738.00;4981185;28;6807;-70
2022/03/03 05:34:59;;;;;;;;;;;;;;;3.38;48.96;100743.59;4988465;28;7153;-70
2022/03/03 05:37:25;;;;;;;;;;;;;;;3.35;48.34;100740.81;4982826;28;6800;-70
2022/03/03 05:39:52;;;;;;;;;;;;;;;3.33;47.84;100743.19;4983850;28;6837;-70
2022/03/03 05:42:20;;;;;;;;;;;;;;;3.33;48.76;100736.50;4983632;28;6990;-70
2022/03/03 05:44:50;;;;;;;;;;;;;;;3.35;49.10;100740.81;4978973;28;6800;-70
2022/03/03 05:47:17;;;;;;;;;;;;;;;3.38;48.51;100735.97;4985075;28;7365;-70
2022/03/03 05:49:45;;;;;;;;;;;;;;;3.41;47.90;100734.59;4977505;28;7258;-70
2022/03/03 05:52:12;;;;;;;;;;;;;;;3.43;48.85;100730.53;4976436;28;7026;-70
2022/03/03 05:54:38;;;;;;;;;;;;;;;3.43;48.18;100732.19;5001603;28;7220;-70
2022/03/03 05:57:17;;;;;;;;;;;;;;;3.42;47.94;100733.81;4966440;28;7116;-70
2022/03/03 05:59:43;;;;;;;;;;;;;;;3.40;48.80;100735.34;4967293;28;6967;-71
2022/03/03 06:02:10;;;;;;;;;;;;;;;3.39;48.51;100733.56;4996185;28;7018;-71
2022/03/03 06:04:40;;;;;;;;;;;;;;;3.38;47.73;100733.44;4994444;28;7791;-71
2022/03/03 06:07:10;;;;;;;;;;;;;;;3.36;48.46;100725.72;4996093;28;6900;-71
2022/03/03 06:09:37;;;;;;;;;;;;;;;3.36;48.83;100730.78;4981433;28;6851;-71
2022/03/03 06:12:08;;;;;;;;;;;;;;;3.33;48.78;100725.47;4997227;28;7276;-71
2022/03/03 06:14:41;;;;;;;;;;;;;;;3.30;48.12;100727.75;4994088;28;7200;-70
2022/03/03 06:17:09;;;;;;;;;;;;;;;3.27;48.85;100730.00;4973994;28;7342;-70
2022/03/03 06:19:41;;;;;;;;;;;;;;;3.22;48.86;100724.56;4984494;28;7424;-70
2022/03/03 06:22:09;;;;;;;;;;;;;;;3.20;48.70;100728.63;4996029;28;6812;-70
2022/03/03 06:24:35;;;;;;;;;;;;;;;3.18;48.83;100733.56;4944424;28;6993;-70
2022/03/03 06:27:01;;;;;;;;;;;;;;;3.16;48.26;100726.63;4977142;28;6819;-70
2022/03/03 06:29:27;;;;;;;;;;;;;;;3.14;48.90;100726.47;4994810;28;6879;-70
2022/03/03 06:31:53;;;;;;;;;;;;;;;3.13;48.85;100728.88;4984501;28;7278;-70
2022/03/03 06:34:20;;;;;;;;;;;;;;;3.13;49.15;100733.94;4964283;28;6938;-70
2022/03/03 06:36:47;;;;;;;;;;;;;;;3.12;48.49;100729.63;4971149;28;6812;-71
2022/03/03 06:39:13;;;;;;;;;;;;;;;3.10;48.36;100727.00;4995024;28;6820;-70
2022/03/03 06:41:38;;;;;;;;;;;;;;;3.12;48.72;100729.63;4963963;28;6953;-70
2022/03/03 06:44:05;;;;;;;;;;;;;;;3.12;49.74;100733.06;4980827;28;6863;-70
2022/03/03 06:46:31;;;;;;;;;;;;;;;3.15;49.05;100738.38;4985476;28;8375;-71
2022/03/03 06:48:56;;;;;;;;;;;;;;;3.17;48.61;100739.38;4962413;28;6958;-70
2022/03/03 06:51:27;;;;;;;;;;;;;;;3.21;49.20;100739.66;4993962;28;6796;-70
2022/03/03 06:54:00;;;;;;;;;;;;;;;3.24;48.64;100737.38;4971104;28;7308;-70
2022/03/03 06:56:30;;;;;;;;;;;;;;;3.28;48.87;100741.91;4974618;28;6832;-70
2022/03/03 06:59:01;;;;;;;;;;;;;;;3.31;48.80;100743.06;4989598;28;6800;-70
2022/03/03 07:01:29;;;;;;;;;;;;;;;3.36;49.49;100755.25;4973428;28;7904;-70
2022/03/03 07:03:58;;;;;;;;;;;;;;;3.39;49.14;100753.84;4997943;28;7131;-71
2022/03/03 07:06:24;;;;;;;;;;;;;;;3.43;48.99;100749.94;4995881;28;7003;-71
2022/03/03 07:08:55;;;;;;;;;;;;;;;3.47;49.56;100757.00;4973719;28;7262;-71
2022/03/03 07:11:23;;;;;;;;;;;;;;;3.52;49.93;100754.84;4994037;28;6819;-70
2022/03/03 07:13:50;;;;;;;;;;;;;;;3.58;49.62;100760.44;4997281;28;7232;-71
2022/03/03 07:16:44;;;;;;;;;;;;;;;3.63;49.33;100753.22;4963180;28;6871;-70
2022/03/03 07:19:38;;;;;;;;;;;;;;;3.67;49.17;100751.03;4996332;28;6824;-70
2022/03/03 07:22:53;;;;;;;;;;;;;;;3.74;49.59;100753.28;4982874;28;8084;-70
2022/03/03 07:25:27;;;;;;;;;;;;;;;3.81;49.63;100764.81;4975103;28;7010;-70
2022/03/03 07:27:57;;;;;;;;;;;;;;;3.89;49.62;100752.78;4992322;28;6891;-72
2022/03/03 07:30:22;;;;;;;;;;;;;;;3.97;48.92;100750.84;4976285;28;7150;-71
2022/03/03 07:33:08;;;;;;;;;;;;;;;4.05;49.77;100748.91;4997231;28;6783;-72
2022/03/03 07:35:41;;;;;;;;;;;;;;;4.12;49.11;100753.72;4974887;28;6812;-72
2022/03/03 07:38:23;;;;;;;;;;;;;;;4.20;48.96;100747.59;4988684;28;6990;-72
2022/03/03 07:40:49;;;;;;;;;;;;;;;4.28;48.78;100741.50;4993193;28;6918;-72
2022/03/03 07:43:18;;;;;;;;;;;;;;;4.38;49.09;100747.28;4989153;28;6804;-71
2022/03/03 07:45:46;;;;;;;;;;;;;;;4.46;48.69;100753.84;4986242;28;7027;-72
2022/03/03 07:48:13;;;;;;;;;;;;;;;4.56;49.53;100748.72;4949377;28;8601;-71
2022/03/03 07:50:41;;;;;;;;;;;;;;;4.67;49.14;100758.81;4969622;28;6932;-72
2022/03/03 07:53:11;;;;;;;;;;;;;;;4.75;48.46;100752.69;4968905;28;6980;-72
2022/03/03 07:55:49;;;;;;;;;;;;;;;4.86;49.17;100761.13;4966422;28;10210;-72
2022/03/03 07:58:22;;;;;;;;;;;;;;;4.97;48.83;100761.94;4969313;28;6899;-72
2022/03/03 08:00:53;;;;;;;;;;;;;;;5.06;48.43;100765.19;4986938;28;6861;-72
2022/03/03 08:03:23;;;;;;;;;;;;;;;5.19;48.14;100767.00;4962764;28;6804;-72
2022/03/03 08:05:54;;;;;;;;;;;;;;;5.30;48.26;100772.00;4975312;28;6808;-72
2022/03/03 08:08:28;;;;;;;;;;;;;;;5.41;47.57;100778.78;4971177;28;7313;-72
2022/03/03 08:11:07;;;;;;;;;;;;;;;5.50;47.25;100776.94;4991231;28;6811;-72
2022/03/03 08:13:34;;;;;;;;;;;;;;;5.62;47.36;100781.16;4983564;28;6824;-72
2022/03/03 08:16:01;;;;;;;;;;;;;;;5.70;47.83;100777.53;4954061;28;6974;-72
2022/03/03 08:18:35;;;;;;;;;;;;;;;5.78;47.28;100778.97;4984509;28;7476;-72
2022/03/03 08:21:03;;;;;;;;;;;;;;;5.87;47.53;100778.75;4982108;28;6828;-72
2022/03/03 08:23:30;;;;;;;;;;;;;;;5.96;47.07;100776.88;4969522;28;8290;-72
2022/03/03 08:25:57;;;;;;;;;;;;;;;6.06;46.92;100782.66;4965001;28;7197;-72
2022/03/03 08:28:24;;;;;;;;;;;;;;;6.15;46.56;100772.28;4971389;28;7446;-72
2022/03/03 08:31:04;;;;;;;;;;;;;;;6.27;46.10;100764.59;4972354;28;6984;-72
2022/03/03 08:33:52;;;;;;;;;;;;;;;6.38;45.90;100766.28;4991415;28;6897;-72
2022/03/03 08:36:34;;;;;;;;;;;;;;;6.47;46.06;100766.03;4986219;28;6908;-72
2022/03/03 08:39:06;;;;;;;;;;;;;;;6.55;45.39;100759.81;4993257;28;6828;-72
2022/03/03 08:41:37;;;;;;;;;;;;;;;6.65;45.61;100766.41;4971235;28;6885;-72
2022/03/03 08:44:07;;;;;;;;;;;;;;;6.72;45.29;100766.09;4956214;28;7912;-72
2022/03/03 08:46:37;;;;;;;;;;;;;;;6.80;45.30;100772.59;4983282;28;6816;-72
2022/03/03 08:49:07;;;;;;;;;;;;;;;6.88;45.23;100772.25;4985791;28;7142;-72
2022/03/03 08:51:33;;;;;;;;;;;;;;;6.94;45.58;100771.00;4999831;28;7375;-72
2022/03/03 08:53:59;;;;;;;;;;;;;;;7.02;45.30;100774.06;4976369;28;6998;-72
2022/03/03 08:56:26;;;;;;;;;;;;;;;7.11;45.63;100771.28;4977762;28;6880;-72
2022/03/03 08:58:53;;;;;;;;;;;;;;;7.20;45.10;100765.91;4962066;28;7452;-72
2022/03/03 09:01:20;;;;;;;;;;;;;;;7.28;44.69;100761.31;4972990;28;6876;-72
2022/03/03 09:03:46;;;;;;;;;;;;;;;7.34;45.01;100769.38;4982481;28;7229;-72
2022/03/03 09:06:18;;;;;;;;;;;;;;;7.40;44.53;100768.91;4992146;28;7180;-72
2022/03/03 09:08:46;;;;;;;;;;;;;;;7.49;44.56;100774.63;4970884;28;9260;-72
2022/03/03 09:11:12;;;;;;;;;;;;;;;7.56;44.70;100769.16;4979385;28;7264;-72
2022/03/03 09:13:38;;;;;;;;;;;;;;;7.64;44.10;100765.44;4977656;28;6796;-72
2022/03/03 09:16:04;;;;;;;;;;;;;;;7.74;44.40;100769.47;4965670;28;7004;-72
2022/03/03 09:18:31;;;;;;;;;;;;;;;7.82;44.49;100763.97;4980236;28;6800;-72
2022/03/03 09:20:57;;;;;;;;;;;;;;;7.90;43.71;100771.34;4974062;28;6976;-72
2022/03/03 09:23:23;;;;;;;;;;;;;;;7.96;43.50;100768.28;4964405;28;7153;-72
2022/03/03 09:25:48;;;;;;;;;;;;;;;8.03;43.53;100764.50;4967481;28;7225;-72
2022/03/03 09:28:14;;;;;;;;;;;;;;;8.09;42.98;100758.88;4979537;28;6863;-72
2022/03/03 09:30:40;;;;;;;;;;;;;;;8.13;43.69;100759.19;4973272;28;7056;-72
2022/03/03 09:33:06;;;;;;;;;;;;;;;8.22;43.76;100760.56;4999684;28;6883;-72
2022/03/03 09:35:32;;;;;;;;;;;;;;;8.28;43.13;100768.59;4974116;28;7337;-72
2022/03/03 09:37:58;;;;;;;;;;;;;;;8.37;42.70;100764.06;4970109;28;6955;-73
2022/03/03 09:40:25;;;;;;;;;;;;;;;8.44;42.22;100761.09;4994829;28;6962;-72
2022/03/03 09:43:03;;;;;;;;;;;;;;;8.53;42.55;100759.94;4973863;28;6792;-72
2022/03/03 09:45:29;;;;;;;;;;;;;;;8.61;41.81;100759.63;4956943;28;7266;-72
2022/03/03 09:47:56;;;;;;;;;;;;;;;8.69;42.84;100755.00;4973247;28;7018;-72
2022/03/03 09:50:25;;;;;;;;;;;;;;;8.77;42.04;100755.47;4975625;28;8153;-73
2022/03/03 09:52:51;;;;;;;;;;;;;;;8.82;42.29;100754.06;4976731;28;7075;-72
2022/03/03 09:55:17;;;;;;;;;;;;;;;8.89;42.02;100761.31;4953662;28;6916;-72
2022/03/03 09:57:43;;;;;;;;;;;;;;;8.98;42.79;100763.56;4981626;28;6815;-72
2022/03/03 10:00:12;;;;;;;;;;;;;;;9.07;41.24;100770.88;4980180;28;6982;-72
2022/03/03 10:03:08;;;;;;;;;;;;;;;9.14;42.10;100760.25;4998890;28;7337;-73
2022/03/03 10:05:48;;;;;;;;;;;;;;;9.22;41.07;100767.47;4990819;28;6872;-73
2022/03/03 10:08:19;;;;;;;;;;;;;;;9.29;41.01;100767.94;4990954;28;6895;-72
2022/03/03 10:10:49;;;;;;;;;;;;;;;9.37;40.79;100759.84;4946450;28;7082;-72
2022/03/03 10:13:18;;;;;;;;;;;;;;;9.46;41.49;100757.78;4957214;28;6804;-72
2022/03/03 10:15:59;;;;;;;;;;;;;;;9.56;41.15;100747.31;4954060;28;7166;-72
2022/03/03 10:18:27;;;;;;;;;;;;;;;9.65;40.48;100752.06;4972725;28;7077;-72
2022/03/03 10:21:04;;;;;;;;;;;;;;;9.77;40.32;100748.44;4971792;28;6872;-73
2022/03/03 10:23:36;;;;;;;;;;;;;;;9.88;40.56;100749.06;4977209;28;7173;-72
2022/03/03 10:26:07;;;;;;;;;;;;;;;10.02;40.21;100742.16;4986680;28;8003;-72
2022/03/03 10:28:36;;;;;;;;;;;;;;;10.35;40.25;100734.53;4988651;28;6816;-72
2022/03/03 10:31:08;;;;;;;;;;;;;;;11.45;39.42;100745.38;4977460;28;6809;-72
2022/03/03 10:33:46;;;;;;;;;;;;;;;13.01;37.58;100739.72;4966890;28;7278;-73
2022/03/03 10:36:26;;;;;;;;;;;;;;;14.55;36.59;100733.84;4984642;28;6843;-73
2022/03/03 10:39:01;;;;;;;;;;;;;;;15.96;35.11;100727.47;4956718;28;7185;-73
2022/03/03 10:41:46;;;;;;;;;;;;;;;17.26;33.71;100731.13;4988458;28;6991;-71
2022/03/03 10:44:23;;;;;;;;;;;;;;;18.28;32.53;100714.53;4971438;28;7720;-70
2022/03/03 10:47:09;;;;;;;;;;;;;;;19.16;31.45;100712.78;4968392;28;6900;-70
2022/03/03 10:49:55;;;;;;;;;;;;;;;19.87;30.09;100705.25;4987369;28;6892;-70
2022/03/03 10:52:30;;;;;;;;;;;;;;;20.42;29.62;100708.59;4986677;28;7888;-70
2022/03/03 10:55:10;;;;;;;;;;;;;;;20.89;29.23;100697.84;4969735;28;6891;-70
2022/03/03 10:57:51;;;;;;;;;;;;;;;21.41;28.94;100695.72;4992930;28;7204;-70
2022/03/03 11:00:25;;;;;;;;;;;;;;;21.84;27.93;100690.81;4973626;28;7158;-70
2022/03/03 11:02:57;;;;;;;;;;;;;;;22.22;27.94;100685.78;4970982;28;6812;-71
2022/03/03 11:05:26;;;;;;;;;;;;;;;22.51;27.28;100692.88;4981265;28;7260;-71
2022/03/03 11:07:53;;;;;;;;;;;;;;;22.68;26.21;100690.31;4986950;28;6982;-70
2022/03/03 11:10:22;;;;;;;;;;;;;;;22.78;26.09;100684.25;4983434;28;6804;-70
2022/03/03 11:12:49;;;;;;;;;;;;;;;22.92;25.92;100681.66;4969453;28;7368;-70
2022/03/03 11:15:20;;;;;;;;;;;;;;;23.06;25.35;100673.81;4988995;28;6996;-70
2022/03/03 11:17:48;;;;;;;;;;;;;;;23.25;25.19;100681.69;4968342;28;6820;-70
2022/03/03 11:20:17;;;;;;;;;;;;;;;23.40;24.98;100680.81;4969460;28;6989;-70
2022/03/03 11:22:45;;;;;;;;;;;;;;;23.53;24.53;100684.31;4986455;28;6983;-70
2022/03/03 11:25:19;;;;;;;;;;;;;;;23.58;24.47;100674.72;4987945;28;7011;-70
2022/03/03 11:27:45;;;;;;;;;;;;;;;23.58;23.99;100672.09;4985182;28;7231;-70
2022/03/03 11:30:20;;;;;;;;;;;;;;;23.61;24.64;100669.47;4957851;28;6798;-70
2022/03/03 11:33:21;;;;;;;;;;;;;;;23.72;24.31;100667.69;4994112;28;6950;-70
2022/03/03 11:35:52;;;;;;;;;;;;;;;23.76;23.82;100663.34;4967941;28;7658;-70
2022/03/03 11:38:20;;;;;;;;;;;;;;;23.79;24.00;100667.69;4971802;28;8032;-70
2022/03/03 11:40:53;;;;;;;;;;;;;;;23.98;23.42;100661.53;4992629;28;7253;-70
2022/03/03 11:43:19;;;;;;;;;;;;;;;24.25;23.68;100650.97;4988911;28;6803;-70
2022/03/03 11:45:58;;;;;;;;;;;;;;;24.51;23.24;100650.81;4989686;28;6982;-70
2022/03/03 11:48:39;;;;;;;;;;;;;;;24.71;22.99;100639.34;4992187;28;6815;-70
2022/03/03 11:51:47;;;;;;;;;;;;;;;24.78;22.38;100641.09;4973482;28;6812;-70
2022/03/03 11:54:13;;;;;;;;;;;;;;;24.88;22.96;100633.16;4905354;28;7953;-70
2022/03/03 11:57:03;;;;;;;;;;;;;;;24.91;22.50;100635.75;4877828;29;7062;-70
2022/03/03 11:59:41;;;;;;;;;;;;;;;24.93;22.25;100634.84;4964639;28;6837;-70
2022/03/03 12:02:08;;;;;;;;;;;;;;;25.12;21.89;100639.09;4977721;28;6816;-70
2022/03/03 12:04:37;;;;;;;;;;;;;;;25.34;22.42;100631.88;4986913;28;6820;-70
2022/03/03 12:07:03;;;;;;;;;;;;;;;25.51;22.36;100631.75;4970377;28;6887;-70
2022/03/03 12:09:32;;;;;;;;;;;;;;;25.61;21.92;100627.25;4972988;28;6788;-70
2022/03/03 12:12:16;;;;;;;;;;;;;;;25.66;21.80;100628.09;4988539;28;7444;-70
2022/03/03 12:15:01;;;;;;;;;;;;;;;25.47;21.50;100622.13;4987234;28;6824;-70
2022/03/03 12:17:58;;;;;;;;;;;;;;;25.32;22.25;100623.16;4965531;28;6820;-70
2022/03/03 12:20:24;;;;;;;;;;;;;;;25.26;21.85;100634.56;4976835;28;7213;-70
2022/03/03 12:23:06;;;;;;;;;;;;;;;25.19;21.86;100632.88;4984448;28;6779;-70
2022/03/03 12:25:50;;;;;;;;;;;;;;;25.24;21.67;100626.72;4966813;28;8997;-70
2022/03/03 12:28:26;;;;;;;;;;;;;;;25.19;21.59;100625.91;4987577;28;7952;-70
2022/03/03 12:30:54;;;;;;;;;;;;;;;24.94;21.98;100625.25;4971137;28;6836;-70
2022/03/03 12:33:30;;;;;;;;;;;;;;;24.57;21.84;100626.34;4978348;28;7133;-70
2022/03/03 12:36:06;;;;;;;;;;;;;;;23.53;22.02;100627.66;4984100;28;6799;-70
2022/03/03 12:38:36;;;;;;;;;;;;;;;22.04;22.97;100628.31;4981189;28;7007;-70
2022/03/03 12:41:04;;;;;;;;;;;;;;;20.59;24.07;100631.56;4965275;28;6849;-70
2022/03/03 12:43:39;;;;;;;;;;;;;;;19.29;24.53;100628.97;4967118;28;7017;-70
2022/03/03 12:46:05;;;;;;;;;;;;;;;18.31;25.49;100631.56;4964080;28;6808;-70
2022/03/03 12:48:33;;;;;;;;;;;;;;;17.54;26.60;100630.75;4970844;28;6808;-70
2022/03/03 12:51:10;;;;;;;;;;;;;;;16.98;27.09;100625.06;4982428;28;7801;-70
2022/03/03 12:53:42;;;;;;;;;;;;;;;16.50;27.46;100627.28;4972280;28;6820;-70
2022/03/03 12:56:08;;;;;;;;;;;;;;;16.14;28.18;100625.44;4986824;28;6892;-70
2022/03/03 12:58:35;;;;;;;;;;;;;;;15.83;28.13;100619.31;4991667;28;6784;-70
2022/03/03 13:01:02;;;;;;;;;;;;;;;15.56;28.33;100617.69;4971779;28;7025;-70
2022/03/03 13:03:34;;;;;;;;;;;;;;;15.38;28.37;100615.38;4988554;28;7322;-70
2022/03/03 13:06:00;;;;;;;;;;;;;;;15.25;28.47;100616.69;4997524;28;7237;-70
2022/03/03 13:08:29;;;;;;;;;;;;;;;15.13;28.16;100612.88;4995448;28;9210;-70